Himawari 2 — JG5636 — position and weather

sailwx.info

Track history (hours):
 
Tides and Currents Weather Stations Pressure Air Temp Water Temp Dewpoint Dewpoint Depression Visibility Wind Speed Wind Dir Waves Ship Positions

Himawari 2

Last reported at 2016-Feb-14 03:33 UTC. Time now 2016-Feb-14 03:53 UTC.
Position N 34°19' E 135°02'.

Length 161 m; draft 6.5 m.

Type: Cargo ship. MMSI: 431100957.

Date/timePositionNaut miles runAvg speedWind from/ knotsBaromVisibWave heightAir tempDewpointWater temp
2016-Feb-14 03:33N 34°19' E 135°02'2019.4
2016-Feb-14 02:33N 33°59' E 135°00'17912.4
2016-Feb-13 12:05N 34°31' E 138°34'5320.9
2016-Feb-13 09:32N 34°58' E 139°30'1919.7
2016-Feb-13 08:33N 35°12' E 139°46'1211.9
2016-Feb-13 07:34N 35°23' E 139°43'1313.4
2016-Feb-13 06:33N 35°36' E 139°48'0 0.3
2016-Feb-13 05:32N 35°36' E 139°48'0 0.0
2016-Feb-13 04:32N 35°36' E 139°48'0 0.0
2016-Feb-13 03:32N 35°36' E 139°48'0 0.0
2016-Feb-13 02:33N 35°36' E 139°48'5 4.5
2016-Feb-13 01:33N 35°33' E 139°52'1515.0
2016-Feb-13 00:33N 35°19' E 139°44'1615.9
2016-Feb-12 23:34N 35°04' E 139°46'1514.7
2016-Feb-12 22:32N 34°55' E 140°01'2020.7
2016-Feb-12 21:33N 35°05' E 140°22'2020.4
2016-Feb-12 20:33N 35°20' E 140°38'2121.1
2016-Feb-12 19:33N 35°37' E 140°55'  
2016-Feb-09 17:33N 35°25' E 140°45'1515.3
2016-Feb-09 16:33N 35°13' E 140°33'1716.2
2016-Feb-09 15:31N 35°01' E 140°19'1919.1
2016-Feb-09 14:31N 34°52' E 139°58'1514.3
2016-Feb-09 13:29N 35°01' E 139°43'1616.6
2016-Feb-09 12:33N 35°16' E 139°46'1413.9
2016-Feb-09 11:34N 35°29' E 139°50'7 7.2
2016-Feb-09 10:33N 35°36' E 139°48'0 0.0
2016-Feb-09 09:24N 35°36' E 139°48'0 0.0
2016-Feb-09 08:30N 35°36' E 139°48'0 0.0
2016-Feb-09 07:33N 35°36' E 139°48'0 0.0
2016-Feb-09 06:33N 35°36' E 139°48'0 0.0
2016-Feb-09 05:30N 35°36' E 139°48'0 0.0
2016-Feb-09 04:33N 35°36' E 139°48'0 0.0
2016-Feb-09 03:33N 35°36' E 139°48'0 0.0
2016-Feb-09 02:30N 35°36' E 139°48'0 0.0
2016-Feb-09 01:30N 35°36' E 139°48'0 0.0
2016-Feb-09 00:33N 35°36' E 139°48'0 0.3
2016-Feb-08 23:33N 35°37' E 139°48'1111.3
2016-Feb-08 22:34N 35°25' E 139°47'1211.6
2016-Feb-08 21:33N 35°14' E 139°47'1414.3
2016-Feb-08 20:33N 35°00' E 139°40'23819.9
2016-Feb-08 08:33N 34°05' E 134°59'2322.6
2016-Feb-08 07:33N 34°27' E 135°07'1919.2
2016-Feb-08 06:34N 34°39' E 135°24'1 0.7
2016-Feb-08 05:26N 34°40' E 135°24'0 0.0
2016-Feb-08 04:32N 34°40' E 135°24'0 0.0
2016-Feb-08 03:20N 34°40' E 135°24'0 0.0
2016-Feb-08 02:32N 34°40' E 135°24'0 0.0
2016-Feb-08 01:14N 34°40' E 135°24'0 0.0
2016-Feb-08 00:32N 34°40' E 135°24'0 0.0
2016-Feb-07 23:32N 34°40' E 135°24'0 0.0
2016-Feb-07 22:20N 34°40' E 135°24'0 0.0
2016-Feb-07 21:32N 34°40' E 135°24'0 0.0
2016-Feb-07 20:32N 34°40' E 135°24'0 0.0
2016-Feb-07 19:32N 34°40' E 135°24'0 0.0
2016-Feb-07 18:32N 34°40' E 135°24'0 0.0
2016-Feb-07 17:32N 34°40' E 135°24'0 0.0
2016-Feb-07 16:26N 34°40' E 135°24'0 0.0
2016-Feb-07 15:20N 34°40' E 135°24'0 0.0
2016-Feb-07 14:32N 34°40' E 135°24'0 0.0
2016-Feb-07 13:20N 34°40' E 135°24'0 0.0
2016-Feb-07 12:32N 34°40' E 135°24'0 0.0
2016-Feb-07 11:26N 34°40' E 135°24'0 0.0
2016-Feb-07 10:32N 34°40' E 135°24'0 0.0
2016-Feb-07 09:26N 34°40' E 135°24'0 0.0
2016-Feb-07 08:31N 34°40' E 135°24'0 0.0
2016-Feb-07 07:32N 34°40' E 135°24'0 0.0
2016-Feb-07 06:31N 34°40' E 135°24'0 0.0
2016-Feb-07 05:31N 34°40' E 135°24'0 0.0
2016-Feb-07 04:32N 34°40' E 135°24'0 0.0
2016-Feb-07 03:32N 34°40' E 135°24'0 0.0
2016-Feb-07 02:31N 34°40' E 135°24'4 3.6
2016-Feb-07 01:33N 34°37' E 135°21'2020.4
2016-Feb-07 00:33N 34°22' E 135°04'2019.6
2016-Feb-06 23:33N 34°03' E 135°00'23515.5
2016-Feb-06 08:25N 35°02' E 139°37'1517.3
2016-Feb-06 07:34N 35°15' E 139°46'1313.3
2016-Feb-06 06:33N 35°28' E 139°48'8 8.3
2016-Feb-06 05:33N 35°36' E 139°48'0 0.0
2016-Feb-06 04:33N 35°36' E 139°48'0 0.0
2016-Feb-06 03:33N 35°36' E 139°48'0 0.0
2016-Feb-06 02:33N 35°36' E 139°48'0 0.0
2016-Feb-06 01:33N 35°36' E 139°48'9 8.6
2016-Feb-06 00:34N 35°28' E 139°51'1212.3
2016-Feb-05 23:33N 35°17' E 139°45'1514.5
2016-Feb-05 22:33N 35°02' E 139°45'1514.6
2016-Feb-05 21:33N 34°55' E 139°60'2522.2
2016-Feb-05 20:26N 35°08' E 140°25'2022.8
2016-Feb-05 19:33N 35°24' E 140°41'2323.0
2016-Feb-05 18:33N 35°42' E 140°58'  
Track history (hours):
 
Tides and Currents Weather Stations Pressure Air Temp Water Temp Dewpoint Dewpoint Depression Visibility Wind Speed Wind Dir Waves Ship Positions

Himawari 2

Last reported at 2016-Feb-14 03:33 UTC. Time now 2016-Feb-14 03:53 UTC.
Position N 34°19' E 135°02'.

Length 161 m; draft 6.5 m.

Type: Cargo ship. MMSI: 431100957.

Date/timePositionNaut miles runAvg speedWind from/ knotsBaromVisibWave heightAir tempDewpointWater temp
2016-Feb-14 03:33N 34°19' E 135°02'2019.4
2016-Feb-14 02:33N 33°59' E 135°00'17912.4
2016-Feb-13 12:05N 34°31' E 138°34'5320.9
2016-Feb-13 09:32N 34°58' E 139°30'1919.7
2016-Feb-13 08:33N 35°12' E 139°46'1211.9
2016-Feb-13 07:34N 35°23' E 139°43'1313.4
2016-Feb-13 06:33N 35°36' E 139°48'0 0.3
2016-Feb-13 05:32N 35°36' E 139°48'0 0.0
2016-Feb-13 04:32N 35°36' E 139°48'0 0.0
2016-Feb-13 03:32N 35°36' E 139°48'0 0.0
2016-Feb-13 02:33N 35°36' E 139°48'5 4.5
2016-Feb-13 01:33N 35°33' E 139°52'1515.0
2016-Feb-13 00:33N 35°19' E 139°44'1615.9
2016-Feb-12 23:34N 35°04' E 139°46'1514.7
2016-Feb-12 22:32N 34°55' E 140°01'2020.7
2016-Feb-12 21:33N 35°05' E 140°22'2020.4
2016-Feb-12 20:33N 35°20' E 140°38'2121.1
2016-Feb-12 19:33N 35°37' E 140°55'  
2016-Feb-09 17:33N 35°25' E 140°45'1515.3
2016-Feb-09 16:33N 35°13' E 140°33'1716.2
2016-Feb-09 15:31N 35°01' E 140°19'1919.1
2016-Feb-09 14:31N 34°52' E 139°58'1514.3
2016-Feb-09 13:29N 35°01' E 139°43'1616.6
2016-Feb-09 12:33N 35°16' E 139°46'1413.9
2016-Feb-09 11:34N 35°29' E 139°50'7 7.2
2016-Feb-09 10:33N 35°36' E 139°48'0 0.0
2016-Feb-09 09:24N 35°36' E 139°48'0 0.0
2016-Feb-09 08:30N 35°36' E 139°48'0 0.0
2016-Feb-09 07:33N 35°36' E 139°48'0 0.0
2016-Feb-09 06:33N 35°36' E 139°48'0 0.0
2016-Feb-09 05:30N 35°36' E 139°48'0 0.0
2016-Feb-09 04:33N 35°36' E 139°48'0 0.0
2016-Feb-09 03:33N 35°36' E 139°48'0 0.0
2016-Feb-09 02:30N 35°36' E 139°48'0 0.0
2016-Feb-09 01:30N 35°36' E 139°48'0 0.0
2016-Feb-09 00:33N 35°36' E 139°48'0 0.3
2016-Feb-08 23:33N 35°37' E 139°48'1111.3
2016-Feb-08 22:34N 35°25' E 139°47'1211.6
2016-Feb-08 21:33N 35°14' E 139°47'1414.3
2016-Feb-08 20:33N 35°00' E 139°40'23819.9
2016-Feb-08 08:33N 34°05' E 134°59'2322.6
2016-Feb-08 07:33N 34°27' E 135°07'1919.2
2016-Feb-08 06:34N 34°39' E 135°24'1 0.7
2016-Feb-08 05:26N 34°40' E 135°24'0 0.0
2016-Feb-08 04:32N 34°40' E 135°24'0 0.0
2016-Feb-08 03:20N 34°40' E 135°24'0 0.0
2016-Feb-08 02:32N 34°40' E 135°24'0 0.0
2016-Feb-08 01:14N 34°40' E 135°24'0 0.0
2016-Feb-08 00:32N 34°40' E 135°24'0 0.0
2016-Feb-07 23:32N 34°40' E 135°24'0 0.0
2016-Feb-07 22:20N 34°40' E 135°24'0 0.0
2016-Feb-07 21:32N 34°40' E 135°24'0 0.0
2016-Feb-07 20:32N 34°40' E 135°24'0 0.0
2016-Feb-07 19:32N 34°40' E 135°24'0 0.0
2016-Feb-07 18:32N 34°40' E 135°24'0 0.0
2016-Feb-07 17:32N 34°40' E 135°24'0 0.0
2016-Feb-07 16:26N 34°40' E 135°24'0 0.0
2016-Feb-07 15:20N 34°40' E 135°24'0 0.0
2016-Feb-07 14:32N 34°40' E 135°24'0 0.0
2016-Feb-07 13:20N 34°40' E 135°24'0 0.0
2016-Feb-07 12:32N 34°40' E 135°24'0 0.0
2016-Feb-07 11:26N 34°40' E 135°24'0 0.0
2016-Feb-07 10:32N 34°40' E 135°24'0 0.0
2016-Feb-07 09:26N 34°40' E 135°24'0 0.0
2016-Feb-07 08:31N 34°40' E 135°24'0 0.0
2016-Feb-07 07:32N 34°40' E 135°24'0 0.0
2016-Feb-07 06:31N 34°40' E 135°24'0 0.0
2016-Feb-07 05:31N 34°40' E 135°24'0 0.0
2016-Feb-07 04:32N 34°40' E 135°24'0 0.0
2016-Feb-07 03:32N 34°40' E 135°24'0 0.0
2016-Feb-07 02:31N 34°40' E 135°24'4 3.6
2016-Feb-07 01:33N 34°37' E 135°21'2020.4
2016-Feb-07 00:33N 34°22' E 135°04'2019.6
2016-Feb-06 23:33N 34°03' E 135°00'23515.5
2016-Feb-06 08:25N 35°02' E 139°37'1517.3
2016-Feb-06 07:34N 35°15' E 139°46'1313.3
2016-Feb-06 06:33N 35°28' E 139°48'8 8.3
2016-Feb-06 05:33N 35°36' E 139°48'0 0.0
2016-Feb-06 04:33N 35°36' E 139°48'0 0.0
2016-Feb-06 03:33N 35°36' E 139°48'0 0.0
2016-Feb-06 02:33N 35°36' E 139°48'0 0.0
2016-Feb-06 01:33N 35°36' E 139°48'9 8.6
2016-Feb-06 00:34N 35°28' E 139°51'1212.3
2016-Feb-05 23:33N 35°17' E 139°45'1514.5
2016-Feb-05 22:33N 35°02' E 139°45'1514.6
2016-Feb-05 21:33N 34°55' E 139°60'2522.2
2016-Feb-05 20:26N 35°08' E 140°25'2022.8
2016-Feb-05 19:33N 35°24' E 140°41'2323.0
2016-Feb-05 18:33N 35°42' E 140°58'  

Dump ship's entire track history